This is the latest recevied weather packets stored in our database for station/object SP2JGY-2. If no packets are shown the sender has not sent any weather packets the latest 10 day(s).
| Time | Temp. | Humidity | Pressure | Rain* | Wind** | Luminosity | Snow |
|---|---|---|---|---|---|---|---|
| 1777827311 | 28.33° C | 20% | 1010.2 hPa | - | - | - | - |
| 1777826410 | 28.33° C | 20% | 1010.3 hPa | - | - | - | - |
| 1777825510 | 31.67° C | 12% | 1010.1 hPa | - | - | - | - |
| 1777824610 | 42.78° C | 6% | 1010.3 hPa | - | - | - | - |
| 1777823710 | 40.56° C | 6% | 1010.5 hPa | - | - | - | - |
| 1777822810 | 39.44° C | 7% | 1010.3 hPa | - | - | - | - |
| 1777821912 | 40.56° C | 6% | 1010.3 hPa | - | - | - | - |
| 1777821009 | 40° C | 6% | 1010.3 hPa | - | - | - | - |
| 1777820109 | 41.67° C | 6% | 1010.3 hPa | - | - | - | - |
| 1777819209 | 37.22° C | 8% | 1010.4 hPa | - | - | - | - |
| 1777818309 | 36.67° C | 10% | 1010.6 hPa | - | - | - | - |
| 1777817409 | 33.33° C | 12% | 1010.7 hPa | - | - | - | - |
| 1777816509 | 32.78° C | 13% | 1010.9 hPa | - | - | - | - |
| 1777815608 | 32.22° C | 13% | 1011.1 hPa | - | - | - | - |
| 1777814708 | 30.56° C | 14% | 1011.5 hPa | - | - | - | - |
| 1777813808 | 30.56° C | 15% | 1011.6 hPa | - | - | - | - |
| 1777812908 | 28.33° C | 17% | 1011.9 hPa | - | - | - | - |
| 1777812009 | 27.22° C | 17% | 1012 hPa | - | - | - | - |
| 1777811108 | 27.22° C | 16% | 1012.1 hPa | - | - | - | - |
| 1777810207 | 27.22° C | 15% | 1012.2 hPa | - | - | - | - |
| 1777809307 | 26.67° C | 18% | 1012.4 hPa | - | - | - | - |
| 1777808407 | 27.22° C | 17% | 1012.4 hPa | - | - | - | - |
| 1777807507 | 26.67° C | 18% | 1012.5 hPa | - | - | - | - |
| 1777805707 | 26.67° C | 18% | 1012.8 hPa | - | - | - | - |
| 1777804806 | 26.67° C | 18% | 1013 hPa | - | - | - | - |
* Rain since midnight (hover to see other rain measurements)
** Current wind speed in m/s (hover to see current wind gust speed)